Time;durP1;ratioP1;P1;durP2;ratioP2;P2;SDS_P1;SDS_P2;PMS_P1;PMS_P2;Temp;Humidity;BMP_temperature;BMP_pressure;BME280_temperature;BME280_humidity;BME280_pressure;Samples;Min_cycle;Max_cycle;Signal;HPM_P1;HPM_P2
2023/03/12 00:00:00;;;;;;;4.97;2.88;;;15.40;70.40;;;;;;6273805;28;20048;-70
2023/03/12 00:03:01;;;;;;;5.32;2.88;;;15.40;70.30;;;;;;6255850;28;20033;-70
2023/03/12 00:06:03;;;;;;;17.38;2.80;;;15.40;70.30;;;;;;6273991;28;20039;-70
2023/03/12 00:09:04;;;;;;;5.75;3.10;;;15.40;70.20;;;;;;6255257;28;20078;-69
2023/03/12 00:12:06;;;;;;;6.40;2.65;;;15.40;70.20;;;;;;6255532;28;20025;-71
2023/03/12 00:15:07;;;;;;;5.47;3.00;;;15.40;70.30;;;;;;6238928;28;20032;-70
2023/03/12 00:18:08;;;;;;;4.72;2.30;;;15.40;70.20;;;;;;6255415;28;20070;-70
2023/03/12 00:21:10;;;;;;;4.82;2.50;;;15.40;70.20;;;;;;6255954;28;20061;-70
2023/03/12 00:24:11;;;;;;;3.25;1.75;;;15.40;70.10;;;;;;6257396;28;20029;-70
2023/03/12 00:27:11;;;;;;;4.32;1.70;;;15.50;70.00;;;;;;6265419;28;20047;-69
2023/03/12 00:30:13;;;;;;;3.33;1.67;;;15.50;69.80;;;;;;6262927;28;20041;-71
2023/03/12 00:33:14;;;;;;;2.70;1.50;;;15.50;69.80;;;;;;6257629;28;20033;-70
2023/03/12 00:36:22;;;;;;;1.80;1.25;;;15.50;69.60;;;;;;6273985;28;20078;-69
2023/03/12 00:39:23;;;;;;;2.33;1.52;;;15.50;70.30;;;;;;6238091;28;20036;-69
2023/03/12 00:42:24;;;;;;;2.92;1.67;;;15.50;69.40;;;;;;6254660;28;20090;-70
2023/03/12 00:45:25;;;;;;;2.55;1.35;;;15.50;69.30;;;;;;6272710;28;20174;-70
2023/03/12 00:48:26;;;;;;;2.45;1.58;;;15.60;69.20;;;;;;6254895;28;20017;-70
2023/03/12 00:51:27;;;;;;;3.00;1.45;;;15.60;69.00;;;;;;6254593;28;20461;-70
2023/03/12 00:54:29;;;;;;;2.70;1.88;;;15.60;68.90;;;;;;6254722;28;20501;-69
2023/03/12 00:57:30;;;;;;;3.53;1.67;;;15.60;68.70;;;;;;6272164;28;20108;-70
2023/03/12 01:00:34;;;;;;;4.90;2.75;;;15.60;68.60;;;;;;6238108;28;20509;-70
2023/03/12 01:03:36;;;;;;;5.85;3.38;;;15.60;68.60;;;;;;6271816;28;20029;-71
2023/03/12 01:06:37;;;;;;;7.07;3.15;;;15.50;68.70;;;;;;6253802;28;20579;-69
2023/03/12 01:09:38;;;;;;;6.30;3.60;;;15.50;68.80;;;;;;6253808;28;20039;-69
2023/03/12 01:12:41;;;;;;;7.60;3.80;;;15.50;69.00;;;;;;6271817;28;20429;-70
2023/03/12 01:15:42;;;;;;;7.40;3.25;;;15.50;69.10;;;;;;6253935;28;20049;-70
2023/03/12 01:18:43;;;;;;;4.75;3.30;;;15.50;69.10;;;;;;6253513;28;20017;-70
2023/03/12 01:21:44;;;;;;;7.60;3.08;;;15.50;69.00;;;;;;6253712;28;20398;-70
2023/03/12 01:24:45;;;;;;;7.97;3.38;;;15.40;68.90;;;;;;6253755;28;20036;-69
2023/03/12 01:27:46;;;;;;;5.97;3.45;;;15.40;69.00;;;;;;6253428;28;20300;-70
2023/03/12 01:30:47;;;;;;;5.43;2.90;;;15.40;69.20;;;;;;6271531;28;20033;-69
2023/03/12 01:33:50;;;;;;;5.20;3.35;;;15.30;69.20;;;;;;6271200;28;20033;-69
2023/03/12 01:36:51;;;;;;;6.30;3.50;;;15.30;69.30;;;;;;6271353;28;20040;-70
2023/03/12 01:39:52;;;;;;;4.75;3.17;;;15.20;69.30;;;;;;6270741;28;20029;-70
2023/03/12 01:42:56;;;;;;;7.00;2.97;;;15.20;69.40;;;;;;6253285;28;20112;-70
2023/03/12 01:46:23;;;;;;;5.10;3.50;;;15.10;69.60;;;;;;6253173;28;20498;-69
2023/03/12 01:49:26;;;;;;;6.07;3.13;;;15.00;69.80;;;;;;6236656;28;20120;-70
2023/03/12 01:52:32;;;;;;;8.18;3.45;;;15.00;70.10;;;;;;6253308;28;20029;-70
2023/03/12 01:55:33;;;;;;;8.45;3.35;;;14.90;70.30;;;;;;6252685;28;20038;-71
2023/03/12 01:58:36;;;;;;;5.30;3.00;;;14.90;70.40;;;;;;6252974;28;20036;-70
2023/03/12 02:01:39;;;;;;;4.30;2.80;;;14.90;70.40;;;;;;6270997;28;20033;-70
2023/03/12 02:04:44;;;;;;;4.70;2.50;;;14.80;70.40;;;;;;6252638;28;20025;-70
2023/03/12 02:07:45;;;;;;;3.83;2.25;;;14.80;70.50;;;;;;6252359;28;20540;-69
2023/03/12 02:10:46;;;;;;;9.25;2.85;;;14.90;70.50;;;;;;6270466;28;20116;-70
2023/03/12 02:13:47;;;;;;;5.93;1.73;;;14.90;70.50;;;;;;6252822;28;20044;-71
2023/03/12 02:16:48;;;;;;;3.60;1.77;;;14.90;70.30;;;;;;6252692;28;20036;-69
2023/03/12 02:20:07;;;;;;;4.18;1.90;;;15.00;70.20;;;;;;6244516;28;20387;-70
2023/03/12 02:23:14;;;;;;;2.35;1.33;;;15.00;70.20;;;;;;6253426;28;20032;-70
2023/03/12 02:26:17;;;;;;;2.78;1.10;;;15.00;70.10;;;;;;6236649;28;20021;-69
2023/03/12 02:29:19;;;;;;;8.05;2.22;;;15.10;70.00;;;;;;6252029;28;20114;-71
2023/03/12 02:32:27;;;;;;;6.85;1.95;;;15.00;69.90;;;;;;6236055;28;20033;-70
2023/03/12 02:35:28;;;;;;;4.70;2.00;;;15.00;70.00;;;;;;6252687;28;20040;-70
2023/03/12 02:38:37;;;;;;;4.75;2.75;;;15.00;70.10;;;;;;6235486;28;20033;-71
2023/03/12 02:41:59;;;;;;;4.82;2.95;;;14.90;70.30;;;;;;6252108;28;20040;-69
2023/03/12 02:45:02;;;;;;;10.60;3.47;;;14.80;70.50;;;;;;6252596;28;20037;-70
2023/03/12 02:48:07;;;;;;;4.90;2.72;;;14.80;70.70;;;;;;6270556;28;20063;-69
2023/03/12 02:51:08;;;;;;;7.38;3.35;;;14.70;71.00;;;;;;6236376;28;20033;-69
2023/03/12 02:54:11;;;;;;;5.72;3.53;;;14.60;71.20;;;;;;6252278;28;20200;-69
2023/03/12 02:57:12;;;;;;;5.55;2.85;;;14.30;71.30;;;;;;6252669;28;20036;-70
2023/03/12 03:00:15;;;;;;;5.82;3.00;;;14.50;71.60;;;;;;6236192;28;20029;-70
2023/03/12 03:03:20;;;;;;;4.25;2.78;;;14.50;71.70;;;;;;6252455;28;20474;-69
2023/03/12 03:06:21;;;;;;;6.47;3.03;;;14.50;71.80;;;;;;6269993;28;20032;-70
2023/03/12 03:09:23;;;;;;;5.30;3.13;;;14.50;71.90;;;;;;6255587;28;20029;-71
2023/03/12 03:12:24;;;;;;;6.18;3.15;;;14.50;71.80;;;;;;6257432;28;20038;-69
2023/03/12 03:15:26;;;;;;;5.90;3.45;;;14.60;72.80;;;;;;6257216;28;20045;-71
2023/03/12 03:18:28;;;;;;;5.35;2.85;;;14.60;71.90;;;;;;6256717;28;20033;-69
2023/03/12 03:21:29;;;;;;;5.70;2.47;;;14.60;71.90;;;;;;6257081;28;20044;-70
2023/03/12 03:24:30;;;;;;;5.30;2.75;;;14.60;71.90;;;;;;6274700;28;20016;-70
2023/03/12 03:27:31;;;;;;;4.07;2.72;;;14.60;71.90;;;;;;6237982;28;20052;-70
2023/03/12 03:30:32;;;;;;;4.07;2.20;;;14.60;71.90;;;;;;6232281;28;20406;-69
2023/03/12 03:33:35;;;;;;;4.95;2.88;;;14.60;71.90;;;;;;6234074;28;20029;-70
2023/03/12 03:36:36;;;;;;;5.63;2.15;;;14.70;72.00;;;;;;6251137;28;20116;-68
2023/03/12 03:39:42;;;;;;;6.25;2.63;;;14.70;71.80;;;;;;6247588;28;20033;-71
2023/03/12 03:42:44;;;;;;;5.82;2.78;;;14.70;71.80;;;;;;6233574;28;20040;-69
2023/03/12 03:45:45;;;;;;;3.60;2.35;;;14.70;71.80;;;;;;6249727;28;20033;-70
2023/03/12 03:48:46;;;;;;;4.25;2.65;;;14.70;71.80;;;;;;6215869;28;20034;-71
2023/03/12 03:51:50;;;;;;;3.53;2.50;;;14.70;71.80;;;;;;6231941;28;20112;-68
2023/03/12 03:54:58;;;;;;;7.13;2.85;;;14.70;71.70;;;;;;6215643;28;20033;-70
2023/03/12 03:58:02;;;;;;;7.60;2.97;;;14.80;71.80;;;;;;6253573;28;20033;-70
2023/03/12 04:01:03;;;;;;;5.03;3.00;;;14.80;71.60;;;;;;6256336;28;20414;-69
2023/03/12 04:04:04;;;;;;;5.78;2.97;;;14.80;71.60;;;;;;6256398;28;20093;-70
2023/03/12 04:07:06;;;;;;;4.47;3.05;;;14.80;71.60;;;;;;6256128;28;20078;-71
2023/03/12 04:10:09;;;;;;;6.05;2.78;;;14.80;71.60;;;;;;6274316;28;20029;-70
2023/03/12 04:13:10;;;;;;;6.20;3.08;;;14.80;71.60;;;;;;6256220;28;20060;-69
2023/03/12 04:16:11;;;;;;;5.03;3.03;;;14.80;71.60;;;;;;6255434;28;20199;-71
2023/03/12 04:19:12;;;;;;;6.68;3.50;;;14.80;71.60;;;;;;6246270;28;20512;-69
2023/03/12 04:22:14;;;;;;;4.30;2.70;;;14.80;71.60;;;;;;6236334;28;20497;-70
2023/03/12 04:25:15;;;;;;;4.13;2.80;;;14.70;71.50;;;;;;6255151;28;20060;-69
2023/03/12 04:28:16;;;;;;;6.65;2.92;;;14.80;71.60;;;;;;6254714;28;20508;-70
2023/03/12 04:31:17;;;;;;;4.88;2.30;;;14.80;71.60;;;;;;6255396;28;20041;-70
2023/03/12 04:34:25;;;;;;;4.53;2.35;;;14.70;71.70;;;;;;6255537;28;20084;-70
2023/03/12 04:37:32;;;;;;;4.95;2.58;;;14.60;71.70;;;;;;6254761;28;20267;-68
2023/03/12 04:40:34;;;;;;;5.45;2.63;;;14.60;71.80;;;;;;6254757;28;20033;-71
2023/03/12 04:43:34;;;;;;;4.15;2.63;;;14.50;71.90;;;;;;6254507;28;20036;-70
2023/03/12 04:46:36;;;;;;;3.85;2.33;;;14.50;72.10;;;;;;6254382;28;20025;-69
2023/03/12 04:49:38;;;;;;;4.90;2.47;;;14.50;72.10;;;;;;6254407;28;20032;-69
2023/03/12 04:52:39;;;;;;;5.32;2.42;;;14.50;72.00;;;;;;6253988;28;20158;-68
2023/03/12 04:55:41;;;;;;;3.35;1.95;;;14.60;72.00;;;;;;6254732;28;20492;-70
2023/03/12 04:58:42;;;;;;;5.55;2.40;;;14.50;71.90;;;;;;6254238;28;20033;-70
2023/03/12 05:01:44;;;;;;;6.32;2.40;;;14.50;72.00;;;;;;6254821;28;20370;-69
2023/03/12 05:04:56;;;;;;;10.60;2.95;;;14.30;72.00;;;;;;6255029;28;20025;-70
2023/03/12 05:07:58;;;;;;;5.45;2.35;;;14.50;72.20;;;;;;6254835;28;20116;-70
2023/03/12 05:10:59;;;;;;;3.47;2.42;;;14.50;72.10;;;;;;6254629;28;20079;-70
2023/03/12 05:14:00;;;;;;;3.35;2.15;;;14.50;72.00;;;;;;6255248;28;20036;-69
2023/03/12 05:17:04;;;;;;;4.32;2.60;;;14.50;72.00;;;;;;6254015;28;20032;-70
2023/03/12 05:20:05;;;;;;;3.58;2.50;;;14.50;72.10;;;;;;6237004;28;20032;-69
2023/03/12 05:23:06;;;;;;;7.43;2.65;;;14.50;72.00;;;;;;6253991;28;20036;-69
2023/03/12 05:26:16;;;;;;;5.28;2.60;;;14.50;72.00;;;;;;6253972;28;20438;-71
2023/03/12 05:29:17;;;;;;;4.25;2.42;;;14.50;72.10;;;;;;6253356;28;20538;-69
2023/03/12 05:32:18;;;;;;;5.22;2.65;;;14.50;72.20;;;;;;6252745;28;20025;-70
2023/03/12 05:35:19;;;;;;;5.00;2.28;;;14.50;72.20;;;;;;6253696;28;20969;-69
2023/03/12 05:38:20;;;;;;;4.35;2.28;;;14.50;72.40;;;;;;6253027;28;20124;-71
2023/03/12 05:41:24;;;;;;;3.78;2.10;;;14.50;72.40;;;;;;6253288;28;20064;-70
2023/03/12 05:44:28;;;;;;;11.32;2.47;;;14.50;72.40;;;;;;6253180;28;20025;-70
2023/03/12 05:47:30;;;;;;;3.70;2.38;;;14.60;72.50;;;;;;6237786;28;20036;-71
2023/03/12 05:50:30;;;;;;;4.28;2.88;;;14.60;72.40;;;;;;6254102;28;20405;-70
2023/03/12 05:53:31;;;;;;;4.03;2.17;;;14.60;72.30;;;;;;6254908;28;20033;-70
2023/03/12 05:56:35;;;;;;;2.63;1.95;;;14.60;72.20;;;;;;6255804;28;20025;-70
2023/03/12 05:59:36;;;;;;;6.80;2.60;;;14.70;72.20;;;;;;6259217;28;20032;-71
2023/03/12 06:02:38;;;;;;;3.95;2.30;;;14.70;72.20;;;;;;6253241;28;20437;-70
2023/03/12 06:05:39;;;;;;;4.15;2.40;;;14.70;72.10;;;;;;6253037;28;20033;-70
2023/03/12 06:08:41;;;;;;;3.13;2.08;;;14.70;72.10;;;;;;6236346;28;20028;-70
2023/03/12 06:11:42;;;;;;;3.67;2.42;;;14.70;72.10;;;;;;6253057;28;20032;-70
2023/03/12 06:14:43;;;;;;;2.40;1.92;;;14.70;72.00;;;;;;6270733;28;20059;-70
2023/03/12 06:17:43;;;;;;;4.40;2.10;;;14.70;72.00;;;;;;6251272;28;20033;-70
2023/03/12 06:20:45;;;;;;;7.47;2.15;;;14.80;72.00;;;;;;6214005;28;20120;-71
2023/03/12 06:23:46;;;;;;;4.65;2.40;;;14.80;72.00;;;;;;6235357;28;20034;-69
2023/03/12 06:26:52;;;;;;;5.18;2.78;;;14.90;71.90;;;;;;6240885;28;20036;-68
2023/03/12 06:29:53;;;;;;;5.20;3.05;;;14.90;71.80;;;;;;6253407;28;20033;-69
2023/03/12 06:32:54;;;;;;;8.25;3.22;;;15.00;71.70;;;;;;6238547;28;20188;-69
2023/03/12 06:35:56;;;;;;;6.45;3.72;;;15.00;71.60;;;;;;6252944;28;20489;-70
2023/03/12 06:38:57;;;;;;;5.93;3.13;;;15.10;71.50;;;;;;6228035;28;20087;-70
2023/03/12 06:41:58;;;;;;;4.47;2.60;;;15.10;71.50;;;;;;6245547;28;20026;-69
2023/03/12 06:44:59;;;;;;;4.65;2.70;;;15.10;71.40;;;;;;6253275;28;20154;-69
2023/03/12 06:47:59;;;;;;;3.30;2.35;;;15.20;71.40;;;;;;6236408;28;20039;-71
2023/03/12 06:51:04;;;;;;;4.43;2.72;;;15.10;71.30;;;;;;6270746;28;20029;-69
2023/03/12 06:54:05;;;;;;;10.35;3.50;;;15.20;71.10;;;;;;6252161;28;20148;-70
2023/03/12 06:57:06;;;;;;;3.45;2.28;;;15.20;71.10;;;;;;6252122;28;20044;-70
2023/03/12 07:00:08;;;;;;;4.55;2.83;;;15.20;71.10;;;;;;6269993;28;20486;-69
2023/03/12 07:03:09;;;;;;;7.93;3.50;;;15.20;71.00;;;;;;6236270;28;20033;-69
2023/03/12 07:06:19;;;;;;;6.95;3.72;;;15.30;70.90;;;;;;6270263;28;20055;-71
2023/03/12 07:09:20;;;;;;;12.95;3.63;;;15.30;70.80;;;;;;6269480;28;20086;-69
2023/03/12 07:12:21;;;;;;;7.10;3.70;;;15.40;70.70;;;;;;6269409;28;20308;-69
2023/03/12 07:15:22;;;;;;;5.25;3.13;;;15.50;70.70;;;;;;6251709;28;20032;-69
2023/03/12 07:18:23;;;;;;;5.72;3.42;;;15.40;70.60;;;;;;6243942;28;20438;-70
2023/03/12 07:21:24;;;;;;;8.35;3.75;;;15.50;70.50;;;;;;6227171;28;20037;-71
2023/03/12 07:24:25;;;;;;;5.68;3.53;;;15.50;70.40;;;;;;6244926;28;20156;-70
2023/03/12 07:27:26;;;;;;;5.47;3.67;;;15.50;70.30;;;;;;6210376;28;20052;-71
2023/03/12 07:30:30;;;;;;;7.50;3.90;;;15.60;70.20;;;;;;6226445;28;20049;-70
2023/03/12 07:33:31;;;;;;;6.88;3.80;;;15.60;70.10;;;;;;6226874;28;20107;-69
2023/03/12 07:36:32;;;;;;;15.77;4.28;;;15.70;69.90;;;;;;6226801;28;20037;-70
2023/03/12 07:39:33;;;;;;;6.70;4.25;;;15.80;69.70;;;;;;6244244;28;20036;-70
2023/03/12 07:42:34;;;;;;;12.15;4.80;;;15.70;69.40;;;;;;6226632;28;20475;-69
2023/03/12 07:45:39;;;;;;;6.90;4.20;;;15.70;69.50;;;;;;6238374;28;20029;-71
2023/03/12 07:48:41;;;;;;;9.38;4.35;;;15.70;69.50;;;;;;6251004;28;20031;-70
2023/03/12 07:51:42;;;;;;;6.20;4.20;;;15.70;69.50;;;;;;6269258;28;20029;-70
2023/03/12 07:54:43;;;;;;;7.07;4.50;;;15.80;69.50;;;;;;6253615;28;20040;-69
2023/03/12 07:57:43;;;;;;;10.38;4.22;;;15.80;69.30;;;;;;6254905;28;20131;-69
2023/03/12 08:00:44;;;;;;;10.02;4.88;;;15.80;69.30;;;;;;6238837;28;20044;-71
2023/03/12 08:03:45;;;;;;;7.75;4.45;;;15.80;69.30;;;;;;6273803;28;20019;-70
2023/03/12 08:06:46;;;;;;;7.82;5.05;;;15.80;69.40;;;;;;6273318;28;20029;-71
2023/03/12 08:09:48;;;;;;;8.68;4.50;;;15.80;69.30;;;;;;6254509;28;20043;-72
2023/03/12 08:12:49;;;;;;;8.00;4.65;;;15.80;69.20;;;;;;6273394;28;20032;-70
2023/03/12 08:15:51;;;;;;;13.77;5.18;;;15.80;69.20;;;;;;6273327;28;20048;-71
2023/03/12 08:18:53;;;;;;;8.07;5.18;;;15.90;69.10;;;;;;6261306;28;20371;-69
2023/03/12 08:21:54;;;;;;;12.85;5.88;;;16.00;69.10;;;;;;6230605;28;20409;-72
2023/03/12 08:24:55;;;;;;;10.63;6.45;;;16.10;69.20;;;;;;6230400;28;20060;-70
2023/03/12 08:27:56;;;;;;;12.13;5.90;;;16.20;69.00;;;;;;6247772;28;20467;-69
2023/03/12 08:30:59;;;;;;;9.85;6.35;;;16.30;68.80;;;;;;6230367;28;20033;-70
2023/03/12 08:34:00;;;;;;;9.18;5.53;;;16.50;68.50;;;;;;6230791;28;20041;-69
2023/03/12 08:37:02;;;;;;;9.88;5.55;;;16.60;68.40;;;;;;6233261;28;20036;-69
2023/03/12 08:40:12;;;;;;;8.10;4.65;;;16.80;68.20;;;;;;6254415;28;20466;-69
2023/03/12 08:43:13;;;;;;;7.95;4.80;;;16.90;67.80;;;;;;6272729;28;20047;-70
2023/03/12 08:46:14;;;;;;;6.95;4.65;;;17.00;67.50;;;;;;6254423;28;20025;-69
2023/03/12 08:49:15;;;;;;;8.77;3.55;;;17.10;67.20;;;;;;6254785;28;20025;-70
2023/03/12 08:52:15;;;;;;;5.85;3.72;;;17.10;67.00;;;;;;6238473;28;20393;-70
2023/03/12 08:55:16;;;;;;;6.88;3.28;;;17.00;66.70;;;;;;6272784;28;20029;-70
2023/03/12 08:58:17;;;;;;;6.32;3.22;;;17.00;66.70;;;;;;6272651;28;20033;-70
2023/03/12 09:01:18;;;;;;;7.30;3.70;;;16.90;66.80;;;;;;6255171;28;20493;-70
2023/03/12 09:04:19;;;;;;;6.93;3.40;;;16.90;66.70;;;;;;6253766;28;20051;-69
2023/03/12 09:07:21;;;;;;;6.30;3.65;;;16.80;66.80;;;;;;6254246;28;20474;-70
2023/03/12 09:10:22;;;;;;;4.95;3.22;;;16.70;66.90;;;;;;6273013;28;20036;-70
2023/03/12 09:13:23;;;;;;;5.88;3.10;;;16.70;66.90;;;;;;6265883;28;20052;-69
2023/03/12 09:16:24;;;;;;;6.72;3.63;;;16.70;67.00;;;;;;6290387;28;20410;-69
2023/03/12 09:19:25;;;;;;;6.50;3.70;;;16.80;67.00;;;;;;6231250;28;20379;-71
2023/03/12 09:22:29;;;;;;;6.60;3.42;;;16.90;66.90;;;;;;6213657;28;20061;-70
2023/03/12 09:25:30;;;;;;;8.38;3.38;;;17.00;66.50;;;;;;6247077;28;20068;-72
2023/03/12 09:28:31;;;;;;;10.15;3.55;;;17.20;66.30;;;;;;6260402;28;20715;-69
2023/03/12 09:31:33;;;;;;;8.52;3.30;;;17.30;66.00;;;;;;6253818;28;20044;-71
2023/03/12 09:34:34;;;;;;;9.32;3.97;;;17.40;65.70;;;;;;6271397;28;20072;-72
2023/03/12 09:37:35;;;;;;;12.27;4.63;;;17.50;65.40;;;;;;6253222;28;20079;-72
2023/03/12 09:40:38;;;;;;;4.22;2.80;;;17.50;65.30;;;;;;6271186;28;20044;-72
2023/03/12 09:43:46;;;;;;;2.60;2.00;;;17.60;65.20;;;;;;6236856;28;20029;-72
2023/03/12 09:46:54;;;;;;;4.00;2.28;;;17.80;65.60;;;;;;6271277;28;20039;-71
2023/03/12 09:50:02;;;;;;;5.15;2.60;;;18.00;64.00;;;;;;6271121;28;20029;-70
2023/03/12 09:53:24;;;;;;;6.88;2.17;;;18.20;63.60;;;;;;6253339;28;20137;-70
2023/03/12 09:56:26;;;;;;;6.53;2.20;;;18.50;62.70;;;;;;6270878;28;20052;-71
2023/03/12 09:59:27;;;;;;;9.63;2.25;;;18.70;62.10;;;;;;6270581;28;20029;-71
2023/03/12 10:02:46;;;;;;;3.00;1.60;;;18.90;61.50;;;;;;6252657;28;20068;-71
2023/03/12 10:05:54;;;;;;;4.30;1.38;;;19.20;60.70;;;;;;6236729;28;20131;-70
2023/03/12 10:09:43;;;;;;;5.57;1.20;;;19.30;59.40;;;;;;6251887;28;20025;-71
2023/03/12 10:12:56;;;;;;;2.72;0.80;;;19.30;58.70;;;;;;6169474;28;20122;-70
2023/03/12 10:16:28;;;;;;;1.33;0.47;;;19.50;58.10;;;;;;6169748;28;20041;-72
2023/03/12 10:19:45;;;;;;;4.18;0.45;;;19.70;57.40;;;;;;6153623;28;20046;-71
2023/03/12 10:22:55;;;;;;;1.23;0.60;;;19.90;55.90;;;;;;6161456;28;20047;-70
2023/03/12 10:26:13;;;;;;;4.18;0.47;;;20.00;54.80;;;;;;6145615;29;20428;-75
2023/03/12 10:29:24;;;;;;;1.83;0.47;;;20.10;53.60;;;;;;6146043;28;20537;-72
2023/03/12 10:32:52;;;;;;;4.25;0.52;;;20.20;53.00;;;;;;6169699;28;20034;-73
2023/03/12 10:35:54;;;;;;;1.02;0.30;;;20.30;52.40;;;;;;6169657;28;20050;-71
2023/03/12 10:38:55;;;;;;;2.70;0.32;;;20.30;51.60;;;;;;6153028;28;20035;-70
2023/03/12 10:41:59;;;;;;;0.63;0.30;;;20.30;51.30;;;;;;6178910;28;20429;-71
2023/03/12 10:45:12;;;;;;;0.90;0.50;;;20.20;50.50;;;;;;6251925;28;20036;-71
2023/03/12 10:48:24;;;;;;;2.17;0.52;;;20.10;50.40;;;;;;6265655;28;20024;-72
2023/03/12 10:51:25;;;;;;;0.50;0.30;;;20.30;50.00;;;;;;6269930;28;20501;-71
2023/03/12 10:54:30;;;;;;;0.45;0.35;;;20.60;49.10;;;;;;6269686;28;20029;-70
2023/03/12 10:57:40;;;;;;;1.55;0.40;;;20.80;48.10;;;;;;6251089;28;20036;-71
2023/03/12 11:00:57;;;;;;;2.70;0.30;;;20.90;47.30;;;;;;6235484;28;20393;-70
2023/03/12 11:04:18;;;;;;;0.25;0.20;;;21.10;46.10;;;;;;6270045;28;20036;-71
2023/03/12 11:07:32;;;;;;;1.25;0.52;;;21.10;46.20;;;;;;6251740;28;20044;-71
2023/03/12 11:10:44;;;;;;;0.30;0.30;;;21.10;46.00;;;;;;6269509;28;20108;-71
2023/03/12 11:13:45;;;;;;;1.45;0.40;;;21.30;45.80;;;;;;6252024;28;20057;-70
2023/03/12 11:16:47;;;;;;;0.88;0.15;;;21.40;43.90;;;;;;6251865;28;20375;-72
2023/03/12 11:19:50;;;;;;;1.63;0.32;;;21.50;43.80;;;;;;6243371;28;20765;-74
2023/03/12 11:22:51;;;;;;;1.13;0.45;;;21.60;44.00;;;;;;6245220;28;20029;-72
2023/03/12 11:26:00;;;;;;;0.10;0.10;;;21.90;44.30;;;;;;6227683;28;20083;-72
2023/03/12 11:29:20;;;;;;;1.77;0.65;;;22.10;43.00;;;;;;6228194;28;20068;-74
2023/03/12 11:32:33;;;;;;;4.47;0.40;;;22.30;42.50;;;;;;6231833;28;20547;-73
2023/03/12 11:35:57;;;;;;;2.28;0.38;;;22.60;41.80;;;;;;6232070;28;20060;-73
2023/03/12 11:39:21;;;;;;;2.58;0.52;;;22.80;41.90;;;;;;6249242;28;20040;-73
2023/03/12 11:42:40;;;;;;;1.13;0.40;;;23.10;40.30;;;;;;6232694;28;20098;-73
2023/03/12 11:46:17;;;;;;;0.68;0.30;;;23.40;40.30;;;;;;6249619;28;20120;-74
2023/03/12 11:50:02;;;;;;;0.52;0.28;;;23.80;39.90;;;;;;6231799;28;20021;-72
2023/03/12 11:53:12;;;;;;;1.38;0.60;;;24.00;39.20;;;;;;6257128;28;20115;-72
2023/03/12 11:56:47;;;;;;;1.23;0.60;;;24.20;38.70;;;;;;6278742;28;20121;-73
2023/03/12 12:00:11;;;;;;;0.90;0.50;;;24.50;38.30;;;;;;6189194;28;20039;-76
2023/03/12 12:03:36;;;;;;;1.40;0.70;;;24.70;37.70;;;;;;6177668;28;20038;-73
2023/03/12 12:06:46;;;;;;;3.88;0.40;;;25.00;37.40;;;;;;6175145;28;20114;-75
2023/03/12 12:09:55;;;;;;;2.50;0.50;;;25.30;36.10;;;;;;6157555;28;20476;-74
2023/03/12 12:13:05;;;;;;;1.77;0.75;;;25.70;35.90;;;;;;6158351;28;20101;-73
2023/03/12 12:16:14;;;;;;;3.08;0.50;;;26.10;35.20;;;;;;6174231;28;20543;-74
2023/03/12 12:19:30;;;;;;;0.88;0.45;;;26.50;34.10;;;;;;6140619;28;20031;-73
2023/03/12 12:22:51;;;;;;;1.75;0.73;;;26.70;33.40;;;;;;6156441;28;20538;-72
2023/03/12 12:26:18;;;;;;;1.10;0.50;;;27.10;33.00;;;;;;6172118;28;20035;-72
2023/03/12 12:29:35;;;;;;;1.10;0.65;;;27.70;32.60;;;;;;6155866;28;20097;-71
2023/03/12 12:33:02;;;;;;;2.83;0.60;;;28.20;32.00;;;;;;6172587;28;20432;-73
2023/03/12 12:36:04;;;;;;;0.90;0.43;;;28.70;30.50;;;;;;6205599;28;20041;-72
2023/03/12 12:39:18;;;;;;;0.70;0.60;;;28.90;30.00;;;;;;6247762;28;20037;-73
2023/03/12 12:42:25;;;;;;;0.75;0.40;;;29.10;29.90;;;;;;6248281;28;20124;-72
2023/03/12 12:45:27;;;;;;;1.30;0.40;;;29.30;29.20;;;;;;6240862;28;20025;-74
2023/03/12 12:48:37;;;;;;;0.52;0.30;;;29.50;29.10;;;;;;6254751;28;20036;-72
2023/03/12 12:51:46;;;;;;;2.13;0.57;;;29.80;28.80;;;;;;6273308;28;20446;-72
2023/03/12 12:55:18;;;;;;;1.23;0.40;;;30.00;28.10;;;;;;6255080;28;20063;-73
2023/03/12 12:58:39;;;;;;;1.00;0.40;;;29.90;28.00;;;;;;6272645;28;20035;-71
2023/03/12 13:01:40;;;;;;;1.58;0.40;;;29.80;28.00;;;;;;6272331;28;20094;-69
2023/03/12 13:04:42;;;;;;;2.72;0.50;;;29.90;28.10;;;;;;6272567;28;20428;-71
2023/03/12 13:07:44;;;;;;;2.65;0.75;;;30.30;28.00;;;;;;6253955;28;20447;-74
2023/03/12 13:10:48;;;;;;;2.38;0.40;;;30.40;27.70;;;;;;6254762;28;20079;-73
2023/03/12 13:14:04;;;;;;;1.27;0.60;;;29.80;28.70;;;;;;6273042;28;20107;-73
2023/03/12 13:17:08;;;;;;;0.30;0.30;;;28.80;28.70;;;;;;6254663;28;20389;-72
2023/03/12 13:20:09;;;;;;;0.98;0.45;;;28.00;29.40;;;;;;6237548;28;20036;-74
2023/03/12 13:23:10;;;;;;;1.55;0.32;;;27.20;29.70;;;;;;6237951;28;20043;-73
2023/03/12 13:26:24;;;;;;;0.35;0.28;;;26.50;30.50;;;;;;6273022;28;20055;-73
2023/03/12 13:29:28;;;;;;;6.45;2.60;;;25.80;31.10;;;;;;6271921;28;20234;-72
2023/03/12 13:32:35;;;;;;;0.30;0.30;;;25.20;31.90;;;;;;6271613;28;20057;-71
2023/03/12 13:35:38;;;;;;;0.20;0.20;;;24.80;32.60;;;;;;6271792;28;20040;-70
2023/03/12 13:38:55;;;;;;;2.05;0.47;;;24.50;33.10;;;;;;6271845;28;20045;-73
2023/03/12 13:41:58;;;;;;;3.10;0.57;;;24.30;33.60;;;;;;6254038;28;20029;-74
2023/03/12 13:45:21;;;;;;;0.75;0.40;;;24.20;33.80;;;;;;6271585;28;20383;-74
2023/03/12 13:48:23;;;;;;;0.30;0.30;;;24.00;34.00;;;;;;6253660;28;20025;-73
2023/03/12 13:51:25;;;;;;;0.20;0.20;;;23.80;34.40;;;;;;6253118;28;20025;-73
2023/03/12 13:54:31;;;;;;;1.70;0.35;;;23.60;34.80;;;;;;6253688;28;20043;-74
2023/03/12 13:58:05;;;;;;;2.08;0.57;;;23.40;35.30;;;;;;6271571;28;20181;-75
2023/03/12 14:01:14;;;;;;;0.75;0.50;;;23.20;35.80;;;;;;6253162;28;20514;-74
2023/03/12 14:04:21;;;;;;;1.15;0.70;;;23.00;36.10;;;;;;6237648;28;20033;-72
2023/03/12 14:08:00;;;;;;;1.20;0.40;;;23.00;36.40;;;;;;6253295;28;20033;-71
2023/03/12 14:11:28;;;;;;;1.23;0.40;;;22.90;36.50;;;;;;6138361;28;20039;-73
2023/03/12 14:14:40;;;;;;;0.52;0.50;;;22.80;36.60;;;;;;6154353;28;20042;-72
2023/03/12 14:17:43;;;;;;;1.60;0.65;;;22.70;36.60;;;;;;6154250;28;20109;-72
2023/03/12 14:20:54;;;;;;;0.63;0.47;;;22.60;37.00;;;;;;6170670;28;20154;-73
2023/03/12 14:23:58;;;;;;;0.30;0.30;;;22.40;37.50;;;;;;6170283;28;20058;-73
2023/03/12 14:27:01;;;;;;;3.08;0.63;;;22.20;38.00;;;;;;6154097;28;20043;-72
2023/03/12 14:30:25;;;;;;;0.65;0.52;;;22.10;38.40;;;;;;6154259;28;20058;-73
2023/03/12 14:33:41;;;;;;;1.85;0.47;;;22.00;38.70;;;;;;6171031;28;20038;-72
2023/03/12 14:37:04;;;;;;;1.48;0.30;;;21.90;38.80;;;;;;6171716;28;20031;-74
2023/03/12 14:40:36;;;;;;;1.80;0.50;;;21.90;38.90;;;;;;6171347;28;20046;-74
2023/03/12 14:43:38;;;;;;;2.45;0.40;;;21.80;39.10;;;;;;6046662;29;20036;-72
2023/03/12 14:46:45;;;;;;;1.42;0.63;;;21.80;39.10;;;;;;6116159;29;20211;-74
2023/03/12 14:49:46;;;;;;;1.17;0.53;;;21.90;39.10;;;;;;6136220;29;20031;-74
2023/03/12 14:52:47;;;;;;;1.58;0.47;;;21.90;39.10;;;;;;6132049;29;20058;-73
2023/03/12 14:56:03;;;;;;;3.55;0.70;;;21.90;39.10;;;;;;6147236;29;20078;-73
2023/03/12 14:59:22;;;;;;;2.00;0.45;;;21.90;39.10;;;;;;6145940;29;20043;-72
2023/03/12 15:02:25;;;;;;;0.47;0.47;;;21.80;39.20;;;;;;6130445;28;20099;-70
2023/03/12 15:05:26;;;;;;;2.55;0.75;;;21.80;39.40;;;;;;6153512;28;20526;-72
2023/03/12 15:08:27;;;;;;;0.22;0.22;;;21.80;39.40;;;;;;6153478;29;20096;-72
2023/03/12 15:11:31;;;;;;;0.82;0.47;;;21.70;39.50;;;;;;6161965;28;20400;-72
2023/03/12 15:14:38;;;;;;;2.83;0.70;;;21.70;39.50;;;;;;6177161;28;20050;-70
2023/03/12 15:17:39;;;;;;;3.50;0.50;;;21.70;39.50;;;;;;6159726;28;20041;-72
2023/03/12 15:20:40;;;;;;;0.55;0.50;;;21.80;39.40;;;;;;6222980;28;20041;-71
2023/03/12 15:23:45;;;;;;;2.17;0.70;;;21.70;39.20;;;;;;6253567;28;20536;-70
2023/03/12 15:26:46;;;;;;;0.95;0.43;;;21.80;39.20;;;;;;6256978;28;20476;-72
2023/03/12 15:29:49;;;;;;;0.75;0.32;;;21.60;39.00;;;;;;6277370;28;20100;-72
2023/03/12 15:33:11;;;;;;;0.30;0.30;;;21.80;38.90;;;;;;6243376;28;20037;-72
2023/03/12 15:36:18;;;;;;;1.60;0.98;;;21.80;39.00;;;;;;6259831;28;20043;-71
2023/03/12 15:39:26;;;;;;;0.47;0.40;;;21.80;39.10;;;;;;6277493;28;20033;-72
2023/03/12 15:42:28;;;;;;;0.38;0.38;;;21.70;39.30;;;;;;6260023;28;20481;-73
2023/03/12 15:45:39;;;;;;;1.13;0.65;;;21.70;39.40;;;;;;6260496;28;20178;-73
2023/03/12 15:48:45;;;;;;;0.55;0.43;;;21.70;39.60;;;;;;6259940;28;20032;-72
2023/03/12 15:52:18;;;;;;;1.75;0.60;;;21.70;39.60;;;;;;6277893;28;20102;-72
2023/03/12 15:55:26;;;;;;;5.18;0.70;;;21.70;39.60;;;;;;6263716;28;20434;-71
2023/03/12 15:58:38;;;;;;;6.05;0.50;;;21.80;39.60;;;;;;6259306;28;20090;-73
2023/03/12 16:01:48;;;;;;;2.15;0.63;;;21.90;39.40;;;;;;6277394;28;20465;-71
2023/03/12 16:04:49;;;;;;;2.22;0.60;;;21.90;39.20;;;;;;6277470;28;20128;-72